sensor_id;sensor_type;location;lat;lon;timestamp;P1;durP1;ratioP1;P2;durP2;ratioP2
2257;SDS011;1136;51.574;7.706;2023-02-27T00:02:11;9.23;;;4.70;;
2257;SDS011;1136;51.574;7.706;2023-02-27T00:04:37;5.10;;;4.43;;
2257;SDS011;1136;51.574;7.706;2023-02-27T00:07:04;8.33;;;6.90;;
2257;SDS011;1136;51.574;7.706;2023-02-27T00:09:30;8.23;;;6.40;;
2257;SDS011;1136;51.574;7.706;2023-02-27T00:11:57;5.43;;;4.87;;
2257;SDS011;1136;51.574;7.706;2023-02-27T00:14:24;5.00;;;4.57;;
2257;SDS011;1136;51.574;7.706;2023-02-27T00:16:50;5.63;;;5.00;;
2257;SDS011;1136;51.574;7.706;2023-02-27T00:19:17;7.73;;;5.33;;
2257;SDS011;1136;51.574;7.706;2023-02-27T00:21:44;11.53;;;7.17;;
2257;SDS011;1136;51.574;7.706;2023-02-27T00:24:11;6.57;;;5.90;;
2257;SDS011;1136;51.574;7.706;2023-02-27T00:26:37;7.57;;;6.83;;
2257;SDS011;1136;51.574;7.706;2023-02-27T00:29:04;11.90;;;7.10;;
2257;SDS011;1136;51.574;7.706;2023-02-27T00:31:31;6.97;;;5.50;;
2257;SDS011;1136;51.574;7.706;2023-02-27T00:33:58;8.50;;;6.07;;
2257;SDS011;1136;51.574;7.706;2023-02-27T00:36:25;11.20;;;8.50;;
2257;SDS011;1136;51.574;7.706;2023-02-27T00:38:52;13.17;;;8.67;;
2257;SDS011;1136;51.574;7.706;2023-02-27T00:41:18;18.40;;;11.07;;
2257;SDS011;1136;51.574;7.706;2023-02-27T00:43:45;18.80;;;11.17;;
2257;SDS011;1136;51.574;7.706;2023-02-27T00:46:12;23.70;;;12.43;;
2257;SDS011;1136;51.574;7.706;2023-02-27T00:48:38;23.53;;;11.13;;
2257;SDS011;1136;51.574;7.706;2023-02-27T00:51:05;16.77;;;11.50;;
2257;SDS011;1136;51.574;7.706;2023-02-27T00:53:32;14.87;;;10.27;;
2257;SDS011;1136;51.574;7.706;2023-02-27T00:55:58;13.47;;;9.93;;
2257;SDS011;1136;51.574;7.706;2023-02-27T00:58:25;13.40;;;8.40;;
2257;SDS011;1136;51.574;7.706;2023-02-27T01:00:51;12.20;;;8.83;;
2257;SDS011;1136;51.574;7.706;2023-02-27T01:03:18;14.23;;;8.10;;
2257;SDS011;1136;51.574;7.706;2023-02-27T01:05:45;9.97;;;7.93;;
2257;SDS011;1136;51.574;7.706;2023-02-27T01:08:11;10.63;;;7.83;;
2257;SDS011;1136;51.574;7.706;2023-02-27T01:10:39;9.63;;;6.70;;
2257;SDS011;1136;51.574;7.706;2023-02-27T01:13:06;10.70;;;6.87;;
2257;SDS011;1136;51.574;7.706;2023-02-27T01:15:32;10.03;;;6.23;;
2257;SDS011;1136;51.574;7.706;2023-02-27T01:17:59;7.40;;;6.67;;
2257;SDS011;1136;51.574;7.706;2023-02-27T01:20:26;8.27;;;7.17;;
2257;SDS011;1136;51.574;7.706;2023-02-27T01:22:52;8.63;;;5.90;;
2257;SDS011;1136;51.574;7.706;2023-02-27T01:25:19;10.20;;;7.27;;
2257;SDS011;1136;51.574;7.706;2023-02-27T01:27:46;11.77;;;5.83;;
2257;SDS011;1136;51.574;7.706;2023-02-27T01:30:12;7.50;;;5.87;;
2257;SDS011;1136;51.574;7.706;2023-02-27T01:32:41;8.40;;;6.70;;
2257;SDS011;1136;51.574;7.706;2023-02-27T01:35:08;10.50;;;7.40;;
2257;SDS011;1136;51.574;7.706;2023-02-27T01:37:35;9.33;;;6.50;;
2257;SDS011;1136;51.574;7.706;2023-02-27T01:40:01;11.27;;;8.00;;
2257;SDS011;1136;51.574;7.706;2023-02-27T01:42:29;13.20;;;8.33;;
2257;SDS011;1136;51.574;7.706;2023-02-27T01:47:34;15.23;;;8.50;;
2257;SDS011;1136;51.574;7.706;2023-02-27T01:50:02;12.50;;;7.90;;
2257;SDS011;1136;51.574;7.706;2023-02-27T01:52:29;16.13;;;8.47;;
2257;SDS011;1136;51.574;7.706;2023-02-27T01:54:56;9.33;;;7.30;;
2257;SDS011;1136;51.574;7.706;2023-02-27T01:57:22;11.40;;;7.90;;
2257;SDS011;1136;51.574;7.706;2023-02-27T01:59:49;13.77;;;7.90;;
2257;SDS011;1136;51.574;7.706;2023-02-27T02:02:18;10.90;;;7.13;;
2257;SDS011;1136;51.574;7.706;2023-02-27T02:04:49;13.07;;;7.70;;
2257;SDS011;1136;51.574;7.706;2023-02-27T02:07:16;11.13;;;7.50;;
2257;SDS011;1136;51.574;7.706;2023-02-27T02:09:48;7.83;;;6.73;;
2257;SDS011;1136;51.574;7.706;2023-02-27T02:12:17;10.80;;;7.07;;
2257;SDS011;1136;51.574;7.706;2023-02-27T02:14:46;10.90;;;8.20;;
2257;SDS011;1136;51.574;7.706;2023-02-27T02:17:14;9.50;;;7.20;;
2257;SDS011;1136;51.574;7.706;2023-02-27T02:20:00;11.27;;;7.20;;
2257;SDS011;1136;51.574;7.706;2023-02-27T02:22:56;7.60;;;6.40;;
2257;SDS011;1136;51.574;7.706;2023-02-27T02:25:50;10.90;;;7.10;;
2257;SDS011;1136;51.574;7.706;2023-02-27T02:42:31;9.13;;;6.10;;
2257;SDS011;1136;51.574;7.706;2023-02-27T02:47:58;10.10;;;6.80;;
2257;SDS011;1136;51.574;7.706;2023-02-27T02:53:31;8.67;;;6.37;;
2257;SDS011;1136;51.574;7.706;2023-02-27T02:56:06;5.97;;;5.40;;
2257;SDS011;1136;51.574;7.706;2023-02-27T02:58:59;7.40;;;5.83;;
2257;SDS011;1136;51.574;7.706;2023-02-27T03:01:35;10.93;;;5.53;;
2257;SDS011;1136;51.574;7.706;2023-02-27T03:06:49;6.37;;;5.73;;
2257;SDS011;1136;51.574;7.706;2023-02-27T03:09:22;8.13;;;6.50;;
2257;SDS011;1136;51.574;7.706;2023-02-27T03:11:54;7.60;;;6.00;;
2257;SDS011;1136;51.574;7.706;2023-02-27T03:17:14;6.10;;;5.50;;
2257;SDS011;1136;51.574;7.706;2023-02-27T03:19:49;7.07;;;5.53;;
2257;SDS011;1136;51.574;7.706;2023-02-27T03:22:24;7.30;;;4.90;;
2257;SDS011;1136;51.574;7.706;2023-02-27T03:24:56;5.27;;;4.77;;
2257;SDS011;1136;51.574;7.706;2023-02-27T03:27:24;7.10;;;5.73;;
2257;SDS011;1136;51.574;7.706;2023-02-27T03:29:57;7.60;;;5.23;;
2257;SDS011;1136;51.574;7.706;2023-02-27T03:35:11;10.33;;;5.40;;
2257;SDS011;1136;51.574;7.706;2023-02-27T03:40:21;5.30;;;4.80;;
2257;SDS011;1136;51.574;7.706;2023-02-27T03:48:21;7.50;;;5.10;;
2257;SDS011;1136;51.574;7.706;2023-02-27T03:50:47;5.33;;;4.83;;
2257;SDS011;1136;51.574;7.706;2023-02-27T03:54:01;8.30;;;5.30;;
2257;SDS011;1136;51.574;7.706;2023-02-27T03:56:07;5.97;;;5.07;;
2257;SDS011;1136;51.574;7.706;2023-02-27T03:58:34;13.53;;;4.73;;
2257;SDS011;1136;51.574;7.706;2023-02-27T04:01:01;6.03;;;5.43;;
2257;SDS011;1136;51.574;7.706;2023-02-27T04:03:28;13.97;;;12.47;;
2257;SDS011;1136;51.574;7.706;2023-02-27T04:05:58;15.33;;;9.97;;
2257;SDS011;1136;51.574;7.706;2023-02-27T04:09:06;8.40;;;7.50;;
2257;SDS011;1136;51.574;7.706;2023-02-27T04:11:51;8.63;;;6.40;;
2257;SDS011;1136;51.574;7.706;2023-02-27T04:14:34;6.53;;;5.93;;
2257;SDS011;1136;51.574;7.706;2023-02-27T04:17:15;10.60;;;6.53;;
2257;SDS011;1136;51.574;7.706;2023-02-27T04:22:21;24.57;;;19.50;;
2257;SDS011;1136;51.574;7.706;2023-02-27T04:30:22;22.07;;;16.20;;
2257;SDS011;1136;51.574;7.706;2023-02-27T04:32:53;27.00;;;19.67;;
2257;SDS011;1136;51.574;7.706;2023-02-27T04:38:35;17.93;;;14.10;;
2257;SDS011;1136;51.574;7.706;2023-02-27T04:41:06;16.87;;;11.90;;
2257;SDS011;1136;51.574;7.706;2023-02-27T04:43:36;13.80;;;10.67;;
2257;SDS011;1136;51.574;7.706;2023-02-27T04:46:04;10.57;;;9.17;;
2257;SDS011;1136;51.574;7.706;2023-02-27T04:48:35;13.00;;;10.43;;
2257;SDS011;1136;51.574;7.706;2023-02-27T04:51:08;15.07;;;12.00;;
2257;SDS011;1136;51.574;7.706;2023-02-27T04:53:45;21.23;;;18.73;;
2257;SDS011;1136;51.574;7.706;2023-02-27T04:56:26;15.43;;;9.50;;
2257;SDS011;1136;51.574;7.706;2023-02-27T04:59:04;10.77;;;9.00;;
2257;SDS011;1136;51.574;7.706;2023-02-27T05:01:36;10.90;;;9.07;;
2257;SDS011;1136;51.574;7.706;2023-02-27T05:04:06;14.97;;;8.90;;
2257;SDS011;1136;51.574;7.706;2023-02-27T05:06:36;15.73;;;8.07;;
2257;SDS011;1136;51.574;7.706;2023-02-27T05:09:08;10.10;;;8.27;;
2257;SDS011;1136;51.574;7.706;2023-02-27T05:19:30;13.07;;;7.87;;
2257;SDS011;1136;51.574;7.706;2023-02-27T05:27:38;9.80;;;8.00;;
2257;SDS011;1136;51.574;7.706;2023-02-27T05:35:54;10.93;;;8.17;;
2257;SDS011;1136;51.574;7.706;2023-02-27T05:38:28;10.27;;;8.90;;
2257;SDS011;1136;51.574;7.706;2023-02-27T05:41:39;8.90;;;7.30;;
2257;SDS011;1136;51.574;7.706;2023-02-27T05:46:36;10.67;;;8.57;;
2257;SDS011;1136;51.574;7.706;2023-02-27T05:49:06;10.13;;;7.03;;
2257;SDS011;1136;51.574;7.706;2023-02-27T05:51:36;9.93;;;7.43;;
2257;SDS011;1136;51.574;7.706;2023-02-27T05:54:09;7.93;;;6.83;;
2257;SDS011;1136;51.574;7.706;2023-02-27T05:57:15;15.93;;;7.70;;
2257;SDS011;1136;51.574;7.706;2023-02-27T06:02:33;11.30;;;7.77;;
2257;SDS011;1136;51.574;7.706;2023-02-27T06:05:00;10.10;;;7.90;;
2257;SDS011;1136;51.574;7.706;2023-02-27T06:07:29;22.03;;;11.60;;
2257;SDS011;1136;51.574;7.706;2023-02-27T06:09:56;15.97;;;7.83;;
2257;SDS011;1136;51.574;7.706;2023-02-27T06:12:23;11.20;;;8.70;;
2257;SDS011;1136;51.574;7.706;2023-02-27T06:14:50;11.97;;;8.93;;
2257;SDS011;1136;51.574;7.706;2023-02-27T06:17:17;11.97;;;8.60;;
2257;SDS011;1136;51.574;7.706;2023-02-27T06:19:44;12.77;;;9.20;;
2257;SDS011;1136;51.574;7.706;2023-02-27T06:22:10;9.90;;;7.20;;
2257;SDS011;1136;51.574;7.706;2023-02-27T06:24:37;10.00;;;7.80;;
2257;SDS011;1136;51.574;7.706;2023-02-27T06:27:03;8.30;;;7.50;;
2257;SDS011;1136;51.574;7.706;2023-02-27T06:29:30;11.43;;;8.07;;
2257;SDS011;1136;51.574;7.706;2023-02-27T06:31:56;9.90;;;8.93;;
2257;SDS011;1136;51.574;7.706;2023-02-27T06:34:23;11.47;;;8.53;;
2257;SDS011;1136;51.574;7.706;2023-02-27T06:36:50;10.87;;;7.87;;
2257;SDS011;1136;51.574;7.706;2023-02-27T06:39:17;12.00;;;8.77;;
2257;SDS011;1136;51.574;7.706;2023-02-27T06:41:43;10.70;;;8.03;;
2257;SDS011;1136;51.574;7.706;2023-02-27T06:44:10;10.23;;;7.50;;
2257;SDS011;1136;51.574;7.706;2023-02-27T06:46:36;12.57;;;8.50;;
2257;SDS011;1136;51.574;7.706;2023-02-27T06:49:04;9.20;;;7.30;;
2257;SDS011;1136;51.574;7.706;2023-02-27T06:51:30;9.90;;;8.03;;
2257;SDS011;1136;51.574;7.706;2023-02-27T06:53:57;11.27;;;8.00;;
2257;SDS011;1136;51.574;7.706;2023-02-27T06:56:24;14.07;;;12.00;;
2257;SDS011;1136;51.574;7.706;2023-02-27T06:58:51;11.40;;;10.17;;
2257;SDS011;1136;51.574;7.706;2023-02-27T07:01:18;12.37;;;9.40;;
2257;SDS011;1136;51.574;7.706;2023-02-27T07:03:45;16.03;;;11.93;;
2257;SDS011;1136;51.574;7.706;2023-02-27T07:06:12;13.67;;;9.10;;
2257;SDS011;1136;51.574;7.706;2023-02-27T07:08:38;18.30;;;9.23;;
2257;SDS011;1136;51.574;7.706;2023-02-27T07:11:25;13.50;;;11.57;;
2257;SDS011;1136;51.574;7.706;2023-02-27T07:13:51;23.43;;;14.93;;
2257;SDS011;1136;51.574;7.706;2023-02-27T07:16:18;20.23;;;13.63;;
2257;SDS011;1136;51.574;7.706;2023-02-27T07:18:45;17.33;;;12.17;;
2257;SDS011;1136;51.574;7.706;2023-02-27T07:21:11;13.77;;;11.83;;
2257;SDS011;1136;51.574;7.706;2023-02-27T07:23:40;16.50;;;10.33;;
2257;SDS011;1136;51.574;7.706;2023-02-27T07:26:07;14.43;;;8.87;;
2257;SDS011;1136;51.574;7.706;2023-02-27T07:28:34;16.57;;;8.13;;
2257;SDS011;1136;51.574;7.706;2023-02-27T07:31:01;13.33;;;8.47;;
2257;SDS011;1136;51.574;7.706;2023-02-27T07:33:28;14.57;;;9.00;;
2257;SDS011;1136;51.574;7.706;2023-02-27T07:35:54;16.40;;;9.63;;
2257;SDS011;1136;51.574;7.706;2023-02-27T07:38:21;18.20;;;10.70;;
2257;SDS011;1136;51.574;7.706;2023-02-27T07:40:49;14.23;;;8.73;;
2257;SDS011;1136;51.574;7.706;2023-02-27T07:43:15;13.40;;;7.60;;
2257;SDS011;1136;51.574;7.706;2023-02-27T07:45:43;9.43;;;7.70;;
2257;SDS011;1136;51.574;7.706;2023-02-27T07:48:10;8.77;;;7.57;;
2257;SDS011;1136;51.574;7.706;2023-02-27T07:50:37;11.47;;;7.63;;
2257;SDS011;1136;51.574;7.706;2023-02-27T07:53:03;10.10;;;8.83;;
2257;SDS011;1136;51.574;7.706;2023-02-27T07:55:33;11.70;;;6.73;;
2257;SDS011;1136;51.574;7.706;2023-02-27T07:58:00;7.57;;;6.03;;
2257;SDS011;1136;51.574;7.706;2023-02-27T08:00:26;6.30;;;5.40;;
2257;SDS011;1136;51.574;7.706;2023-02-27T08:02:53;5.63;;;5.03;;
2257;SDS011;1136;51.574;7.706;2023-02-27T08:05:19;6.57;;;5.57;;
2257;SDS011;1136;51.574;7.706;2023-02-27T08:07:46;9.33;;;6.10;;
2257;SDS011;1136;51.574;7.706;2023-02-27T08:10:13;10.63;;;6.10;;
2257;SDS011;1136;51.574;7.706;2023-02-27T08:12:41;10.90;;;5.53;;
2257;SDS011;1136;51.574;7.706;2023-02-27T08:15:08;6.20;;;4.83;;
2257;SDS011;1136;51.574;7.706;2023-02-27T08:17:35;6.53;;;5.83;;
2257;SDS011;1136;51.574;7.706;2023-02-27T08:20:03;8.40;;;5.13;;
2257;SDS011;1136;51.574;7.706;2023-02-27T08:22:30;9.03;;;5.10;;
2257;SDS011;1136;51.574;7.706;2023-02-27T08:24:57;6.30;;;4.57;;
2257;SDS011;1136;51.574;7.706;2023-02-27T08:27:24;11.23;;;5.80;;
2257;SDS011;1136;51.574;7.706;2023-02-27T08:29:50;9.63;;;5.03;;
2257;SDS011;1136;51.574;7.706;2023-02-27T08:32:17;11.13;;;5.43;;
2257;SDS011;1136;51.574;7.706;2023-02-27T08:34:44;6.23;;;5.57;;
2257;SDS011;1136;51.574;7.706;2023-02-27T08:37:10;6.27;;;5.10;;
2257;SDS011;1136;51.574;7.706;2023-02-27T08:39:37;6.10;;;4.43;;
2257;SDS011;1136;51.574;7.706;2023-02-27T08:42:04;10.07;;;5.47;;
2257;SDS011;1136;51.574;7.706;2023-02-27T08:44:32;7.20;;;5.00;;
2257;SDS011;1136;51.574;7.706;2023-02-27T08:46:59;10.70;;;5.73;;
2257;SDS011;1136;51.574;7.706;2023-02-27T08:49:26;6.67;;;5.47;;
2257;SDS011;1136;51.574;7.706;2023-02-27T08:51:53;5.77;;;4.73;;
2257;SDS011;1136;51.574;7.706;2023-02-27T08:54:20;7.47;;;6.30;;
2257;SDS011;1136;51.574;7.706;2023-02-27T08:56:46;6.97;;;5.20;;
2257;SDS011;1136;51.574;7.706;2023-02-27T08:59:14;8.40;;;5.83;;
2257;SDS011;1136;51.574;7.706;2023-02-27T09:01:40;7.47;;;5.60;;
2257;SDS011;1136;51.574;7.706;2023-02-27T09:04:07;6.83;;;5.33;;
2257;SDS011;1136;51.574;7.706;2023-02-27T09:06:35;6.17;;;5.50;;
2257;SDS011;1136;51.574;7.706;2023-02-27T09:09:02;6.87;;;4.83;;
2257;SDS011;1136;51.574;7.706;2023-02-27T09:11:29;6.60;;;4.77;;
2257;SDS011;1136;51.574;7.706;2023-02-27T09:13:56;6.60;;;4.60;;
2257;SDS011;1136;51.574;7.706;2023-02-27T09:16:24;7.50;;;5.17;;
2257;SDS011;1136;51.574;7.706;2023-02-27T09:18:51;9.13;;;5.77;;
2257;SDS011;1136;51.574;7.706;2023-02-27T09:21:18;6.93;;;5.57;;
2257;SDS011;1136;51.574;7.706;2023-02-27T09:23:45;7.97;;;5.03;;
2257;SDS011;1136;51.574;7.706;2023-02-27T09:26:12;7.00;;;5.23;;
2257;SDS011;1136;51.574;7.706;2023-02-27T09:28:38;30.70;;;6.40;;
2257;SDS011;1136;51.574;7.706;2023-02-27T09:31:06;5.00;;;4.50;;
2257;SDS011;1136;51.574;7.706;2023-02-27T09:33:33;5.63;;;4.90;;
2257;SDS011;1136;51.574;7.706;2023-02-27T09:36:01;7.50;;;5.03;;
2257;SDS011;1136;51.574;7.706;2023-02-27T09:38:28;3.67;;;3.23;;
2257;SDS011;1136;51.574;7.706;2023-02-27T09:40:54;7.67;;;4.53;;
2257;SDS011;1136;51.574;7.706;2023-02-27T09:43:22;5.60;;;4.50;;
2257;SDS011;1136;51.574;7.706;2023-02-27T09:45:56;5.20;;;4.47;;
2257;SDS011;1136;51.574;7.706;2023-02-27T09:50:59;8.13;;;4.70;;
2257;SDS011;1136;51.574;7.706;2023-02-27T09:53:31;7.60;;;4.13;;
2257;SDS011;1136;51.574;7.706;2023-02-27T09:56:06;10.20;;;4.73;;
2257;SDS011;1136;51.574;7.706;2023-02-27T10:01:30;5.37;;;3.57;;
2257;SDS011;1136;51.574;7.706;2023-02-27T10:14:51;5.93;;;4.17;;
2257;SDS011;1136;51.574;7.706;2023-02-27T10:20:15;2.57;;;2.33;;
2257;SDS011;1136;51.574;7.706;2023-02-27T10:22:45;6.90;;;3.50;;
2257;SDS011;1136;51.574;7.706;2023-02-27T10:25:15;3.10;;;2.40;;
2257;SDS011;1136;51.574;7.706;2023-02-27T10:27:57;3.00;;;2.67;;
2257;SDS011;1136;51.574;7.706;2023-02-27T10:30:28;4.03;;;2.70;;
2257;SDS011;1136;51.574;7.706;2023-02-27T10:33:03;5.83;;;2.77;;
2257;SDS011;1136;51.574;7.706;2023-02-27T10:35:33;2.60;;;2.40;;
2257;SDS011;1136;51.574;7.706;2023-02-27T10:38:08;10.30;;;8.10;;
2257;SDS011;1136;51.574;7.706;2023-02-27T10:40:38;3.03;;;2.60;;
2257;SDS011;1136;51.574;7.706;2023-02-27T10:43:05;2.97;;;2.70;;
2257;SDS011;1136;51.574;7.706;2023-02-27T10:45:33;2.70;;;2.50;;
2257;SDS011;1136;51.574;7.706;2023-02-27T10:48:01;2.80;;;2.10;;
2257;SDS011;1136;51.574;7.706;2023-02-27T10:50:32;3.30;;;2.63;;
2257;SDS011;1136;51.574;7.706;2023-02-27T10:53:03;4.80;;;3.23;;
2257;SDS011;1136;51.574;7.706;2023-02-27T10:55:34;4.80;;;2.90;;
2257;SDS011;1136;51.574;7.706;2023-02-27T10:58:03;3.17;;;2.20;;
2257;SDS011;1136;51.574;7.706;2023-02-27T11:00:43;5.87;;;2.90;;
2257;SDS011;1136;51.574;7.706;2023-02-27T11:03:21;2.60;;;2.40;;
2257;SDS011;1136;51.574;7.706;2023-02-27T11:06:00;5.60;;;2.43;;
2257;SDS011;1136;51.574;7.706;2023-02-27T11:08:32;7.00;;;2.80;;
2257;SDS011;1136;51.574;7.706;2023-02-27T11:13:29;3.30;;;2.60;;
2257;SDS011;1136;51.574;7.706;2023-02-27T11:18:28;3.00;;;2.70;;
2257;SDS011;1136;51.574;7.706;2023-02-27T11:23:34;3.60;;;2.60;;
2257;SDS011;1136;51.574;7.706;2023-02-27T11:26:14;2.53;;;2.27;;
2257;SDS011;1136;51.574;7.706;2023-02-27T11:28:43;3.07;;;2.53;;
2257;SDS011;1136;51.574;7.706;2023-02-27T11:31:18;2.57;;;2.37;;
2257;SDS011;1136;51.574;7.706;2023-02-27T11:33:50;4.13;;;2.80;;
2257;SDS011;1136;51.574;7.706;2023-02-27T11:36:19;4.60;;;2.47;;
2257;SDS011;1136;51.574;7.706;2023-02-27T11:38:49;2.77;;;2.57;;
2257;SDS011;1136;51.574;7.706;2023-02-27T11:41:18;6.20;;;3.20;;
2257;SDS011;1136;51.574;7.706;2023-02-27T11:43:51;2.80;;;2.47;;
2257;SDS011;1136;51.574;7.706;2023-02-27T11:46:19;2.73;;;2.50;;
2257;SDS011;1136;51.574;7.706;2023-02-27T11:54:53;4.97;;;2.63;;
2257;SDS011;1136;51.574;7.706;2023-02-27T11:57:29;5.63;;;2.40;;
2257;SDS011;1136;51.574;7.706;2023-02-27T12:00:04;3.50;;;2.13;;
2257;SDS011;1136;51.574;7.706;2023-02-27T12:02:38;3.50;;;2.17;;
2257;SDS011;1136;51.574;7.706;2023-02-27T12:07:45;2.87;;;2.57;;
2257;SDS011;1136;51.574;7.706;2023-02-27T12:10:19;2.97;;;2.00;;
2257;SDS011;1136;51.574;7.706;2023-02-27T12:12:51;3.70;;;2.67;;
2257;SDS011;1136;51.574;7.706;2023-02-27T12:15:26;3.20;;;2.57;;
2257;SDS011;1136;51.574;7.706;2023-02-27T12:18:20;3.33;;;1.90;;
2257;SDS011;1136;51.574;7.706;2023-02-27T12:23:25;2.47;;;2.27;;
2257;SDS011;1136;51.574;7.706;2023-02-27T12:25:56;2.70;;;2.13;;
2257;SDS011;1136;51.574;7.706;2023-02-27T12:31:12;2.47;;;1.40;;
2257;SDS011;1136;51.574;7.706;2023-02-27T12:33:54;1.93;;;1.73;;
2257;SDS011;1136;51.574;7.706;2023-02-27T12:36:26;2.53;;;1.80;;
2257;SDS011;1136;51.574;7.706;2023-02-27T12:38:53;3.33;;;2.17;;
2257;SDS011;1136;51.574;7.706;2023-02-27T12:46:48;2.23;;;2.10;;
2257;SDS011;1136;51.574;7.706;2023-02-27T12:49:23;3.90;;;3.00;;
2257;SDS011;1136;51.574;7.706;2023-02-27T12:54:34;3.50;;;3.07;;
2257;SDS011;1136;51.574;7.706;2023-02-27T13:00:05;4.83;;;3.07;;
2257;SDS011;1136;51.574;7.706;2023-02-27T13:13:15;6.33;;;3.40;;
2257;SDS011;1136;51.574;7.706;2023-02-27T13:15:55;5.63;;;3.10;;
2257;SDS011;1136;51.574;7.706;2023-02-27T13:21:10;4.33;;;3.70;;
2257;SDS011;1136;51.574;7.706;2023-02-27T13:29:50;5.77;;;2.77;;
2257;SDS011;1136;51.574;7.706;2023-02-27T13:32:45;8.30;;;4.20;;
2257;SDS011;1136;51.574;7.706;2023-02-27T13:35:32;8.53;;;3.50;;
2257;SDS011;1136;51.574;7.706;2023-02-27T13:41:41;4.00;;;3.60;;
2257;SDS011;1136;51.574;7.706;2023-02-27T13:46:41;4.43;;;3.67;;
2257;SDS011;1136;51.574;7.706;2023-02-27T13:51:52;4.17;;;3.87;;
2257;SDS011;1136;51.574;7.706;2023-02-27T13:54:20;5.63;;;4.03;;
2257;SDS011;1136;51.574;7.706;2023-02-27T13:56:50;6.30;;;4.43;;
2257;SDS011;1136;51.574;7.706;2023-02-27T13:59:40;4.73;;;3.50;;
2257;SDS011;1136;51.574;7.706;2023-02-27T14:04:49;6.07;;;3.80;;
2257;SDS011;1136;51.574;7.706;2023-02-27T14:07:18;6.37;;;4.20;;
2257;SDS011;1136;51.574;7.706;2023-02-27T14:09:48;9.57;;;4.40;;
2257;SDS011;1136;51.574;7.706;2023-02-27T14:12:29;4.00;;;3.67;;
2257;SDS011;1136;51.574;7.706;2023-02-27T14:17:43;5.53;;;3.00;;
2257;SDS011;1136;51.574;7.706;2023-02-27T14:27:45;6.03;;;3.87;;
2257;SDS011;1136;51.574;7.706;2023-02-27T14:30:34;4.00;;;3.70;;
2257;SDS011;1136;51.574;7.706;2023-02-27T14:35:33;3.43;;;3.13;;
2257;SDS011;1136;51.574;7.706;2023-02-27T14:38:04;3.40;;;3.20;;
2257;SDS011;1136;51.574;7.706;2023-02-27T14:40:36;4.17;;;3.47;;
2257;SDS011;1136;51.574;7.706;2023-02-27T14:43:19;4.87;;;3.77;;
2257;SDS011;1136;51.574;7.706;2023-02-27T14:45:52;8.93;;;3.57;;
2257;SDS011;1136;51.574;7.706;2023-02-27T14:48:23;3.67;;;3.37;;
2257;SDS011;1136;51.574;7.706;2023-02-27T14:50:52;8.93;;;2.87;;
2257;SDS011;1136;51.574;7.706;2023-02-27T14:53:23;5.00;;;3.17;;
2257;SDS011;1136;51.574;7.706;2023-02-27T14:55:52;4.67;;;2.70;;
2257;SDS011;1136;51.574;7.706;2023-02-27T14:58:20;8.63;;;3.40;;
2257;SDS011;1136;51.574;7.706;2023-02-27T15:00:48;4.90;;;3.50;;
2257;SDS011;1136;51.574;7.706;2023-02-27T15:03:28;4.93;;;4.00;;
2257;SDS011;1136;51.574;7.706;2023-02-27T15:06:51;3.70;;;3.40;;
2257;SDS011;1136;51.574;7.706;2023-02-27T15:08:59;3.10;;;2.80;;
2257;SDS011;1136;51.574;7.706;2023-02-27T15:11:28;4.30;;;2.97;;
2257;SDS011;1136;51.574;7.706;2023-02-27T15:13:58;2.97;;;2.50;;
2257;SDS011;1136;51.574;7.706;2023-02-27T15:19:01;3.40;;;3.13;;
2257;SDS011;1136;51.574;7.706;2023-02-27T15:21:32;2.50;;;2.40;;
2257;SDS011;1136;51.574;7.706;2023-02-27T15:24:05;3.40;;;3.10;;
2257;SDS011;1136;51.574;7.706;2023-02-27T15:26:35;5.77;;;4.63;;
2257;SDS011;1136;51.574;7.706;2023-02-27T15:29:04;4.30;;;3.90;;
2257;SDS011;1136;51.574;7.706;2023-02-27T15:31:31;3.50;;;3.30;;
2257;SDS011;1136;51.574;7.706;2023-02-27T15:33:59;7.33;;;5.80;;
2257;SDS011;1136;51.574;7.706;2023-02-27T15:36:27;6.80;;;6.10;;
2257;SDS011;1136;51.574;7.706;2023-02-27T15:41:42;3.23;;;2.97;;
2257;SDS011;1136;51.574;7.706;2023-02-27T15:44:14;3.93;;;3.17;;
2257;SDS011;1136;51.574;7.706;2023-02-27T15:46:42;3.50;;;2.40;;
2257;SDS011;1136;51.574;7.706;2023-02-27T15:49:16;3.40;;;3.10;;
2257;SDS011;1136;51.574;7.706;2023-02-27T15:51:45;4.07;;;2.37;;
2257;SDS011;1136;51.574;7.706;2023-02-27T15:54:12;4.63;;;3.33;;
2257;SDS011;1136;51.574;7.706;2023-02-27T15:56:40;6.73;;;3.80;;
2257;SDS011;1136;51.574;7.706;2023-02-27T15:59:08;3.17;;;2.30;;
2257;SDS011;1136;51.574;7.706;2023-02-27T16:01:38;3.70;;;3.10;;
2257;SDS011;1136;51.574;7.706;2023-02-27T16:04:05;7.40;;;3.83;;
2257;SDS011;1136;51.574;7.706;2023-02-27T16:06:40;3.80;;;3.37;;
2257;SDS011;1136;51.574;7.706;2023-02-27T16:11:46;3.00;;;2.70;;
2257;SDS011;1136;51.574;7.706;2023-02-27T16:19:49;3.23;;;2.93;;
2257;SDS011;1136;51.574;7.706;2023-02-27T16:22:17;6.10;;;3.43;;
2257;SDS011;1136;51.574;7.706;2023-02-27T16:24:45;4.73;;;4.33;;
2257;SDS011;1136;51.574;7.706;2023-02-27T16:29:42;4.80;;;3.43;;
2257;SDS011;1136;51.574;7.706;2023-02-27T16:32:21;6.60;;;4.23;;
2257;SDS011;1136;51.574;7.706;2023-02-27T16:34:59;8.30;;;4.00;;
2257;SDS011;1136;51.574;7.706;2023-02-27T16:37:34;7.23;;;6.10;;
2257;SDS011;1136;51.574;7.706;2023-02-27T16:40:13;12.20;;;6.43;;
2257;SDS011;1136;51.574;7.706;2023-02-27T16:42:42;17.80;;;12.40;;
2257;SDS011;1136;51.574;7.706;2023-02-27T16:45:13;11.07;;;7.10;;
2257;SDS011;1136;51.574;7.706;2023-02-27T16:47:41;7.57;;;5.90;;
2257;SDS011;1136;51.574;7.706;2023-02-27T16:50:12;5.20;;;3.43;;
2257;SDS011;1136;51.574;7.706;2023-02-27T16:52:47;5.67;;;4.67;;
2257;SDS011;1136;51.574;7.706;2023-02-27T16:55:13;5.37;;;4.87;;
2257;SDS011;1136;51.574;7.706;2023-02-27T16:57:40;5.67;;;4.23;;
2257;SDS011;1136;51.574;7.706;2023-02-27T17:00:09;6.60;;;4.80;;
2257;SDS011;1136;51.574;7.706;2023-02-27T17:02:36;6.23;;;5.00;;
2257;SDS011;1136;51.574;7.706;2023-02-27T17:05:04;5.57;;;4.43;;
2257;SDS011;1136;51.574;7.706;2023-02-27T17:07:31;4.33;;;3.80;;
2257;SDS011;1136;51.574;7.706;2023-02-27T17:09:58;7.93;;;3.90;;
2257;SDS011;1136;51.574;7.706;2023-02-27T17:12:25;6.20;;;4.30;;
2257;SDS011;1136;51.574;7.706;2023-02-27T17:14:52;6.03;;;4.70;;
2257;SDS011;1136;51.574;7.706;2023-02-27T17:17:19;5.60;;;4.90;;
2257;SDS011;1136;51.574;7.706;2023-02-27T17:19:45;8.30;;;4.10;;
2257;SDS011;1136;51.574;7.706;2023-02-27T17:22:12;5.10;;;4.60;;
2257;SDS011;1136;51.574;7.706;2023-02-27T17:24:40;5.00;;;4.27;;
2257;SDS011;1136;51.574;7.706;2023-02-27T17:27:07;5.53;;;4.83;;
2257;SDS011;1136;51.574;7.706;2023-02-27T17:29:36;4.20;;;3.90;;
2257;SDS011;1136;51.574;7.706;2023-02-27T17:32:03;8.20;;;5.53;;
2257;SDS011;1136;51.574;7.706;2023-02-27T17:34:30;11.67;;;7.23;;
2257;SDS011;1136;51.574;7.706;2023-02-27T17:36:57;15.80;;;10.87;;
2257;SDS011;1136;51.574;7.706;2023-02-27T17:39:24;10.23;;;6.77;;
2257;SDS011;1136;51.574;7.706;2023-02-27T17:41:50;12.13;;;10.67;;
2257;SDS011;1136;51.574;7.706;2023-02-27T17:44:18;8.80;;;5.97;;
2257;SDS011;1136;51.574;7.706;2023-02-27T17:46:45;13.50;;;10.83;;
2257;SDS011;1136;51.574;7.706;2023-02-27T17:49:11;12.00;;;9.73;;
2257;SDS011;1136;51.574;7.706;2023-02-27T17:51:38;7.97;;;6.77;;
2257;SDS011;1136;51.574;7.706;2023-02-27T17:54:05;8.07;;;5.93;;
2257;SDS011;1136;51.574;7.706;2023-02-27T17:56:32;6.90;;;5.90;;
2257;SDS011;1136;51.574;7.706;2023-02-27T17:59:02;5.60;;;5.00;;
2257;SDS011;1136;51.574;7.706;2023-02-27T18:01:29;5.87;;;5.37;;
2257;SDS011;1136;51.574;7.706;2023-02-27T18:03:55;8.87;;;5.87;;
2257;SDS011;1136;51.574;7.706;2023-02-27T18:06:22;7.77;;;6.23;;
2257;SDS011;1136;51.574;7.706;2023-02-27T18:08:50;8.83;;;6.40;;
2257;SDS011;1136;51.574;7.706;2023-02-27T18:11:17;12.23;;;6.20;;
2257;SDS011;1136;51.574;7.706;2023-02-27T18:13:44;10.83;;;6.60;;
2257;SDS011;1136;51.574;7.706;2023-02-27T18:16:12;7.33;;;6.57;;
2257;SDS011;1136;51.574;7.706;2023-02-27T18:18:39;7.60;;;6.80;;
2257;SDS011;1136;51.574;7.706;2023-02-27T18:21:09;7.70;;;7.00;;
2257;SDS011;1136;51.574;7.706;2023-02-27T18:23:46;9.20;;;7.30;;
2257;SDS011;1136;51.574;7.706;2023-02-27T18:26:18;7.60;;;6.93;;
2257;SDS011;1136;51.574;7.706;2023-02-27T18:28:59;10.47;;;6.93;;
2257;SDS011;1136;51.574;7.706;2023-02-27T18:31:31;7.70;;;6.83;;
2257;SDS011;1136;51.574;7.706;2023-02-27T18:34:03;12.07;;;7.47;;
2257;SDS011;1136;51.574;7.706;2023-02-27T18:36:30;8.10;;;7.07;;